Time;durP1;ratioP1;P1;durP2;ratioP2;P2;SDS_P1;SDS_P2;PMS_P1;PMS_P2;Temp;Humidity;BMP_temperature;BMP_pressure;BME280_temperature;BME280_humidity;BME280_pressure;Samples;Min_cycle;Max_cycle;Signal;HPM_P1;HPM_P2
2022/06/26 00:00:42;;;;;;;13.77;12.23;;;;;;;17.47;91.91;101123.84;4993896;28;20434;-82
2022/06/26 00:03:08;;;;;;;13.45;12.05;;;;;;;17.48;92.02;101126.38;4993730;28;20285;-83
2022/06/26 00:05:33;;;;;;;12.90;11.63;;;;;;;17.49;93.21;101129.91;4991154;28;20384;-82
2022/06/26 00:07:59;;;;;;;13.35;11.98;;;;;;;17.49;93.12;101116.50;4996910;28;20075;-82
2022/06/26 00:10:24;;;;;;;13.82;12.27;;;;;;;17.45;92.92;101118.63;5008015;28;20030;-82
2022/06/26 00:12:50;;;;;;;13.27;11.98;;;;;;;17.44;93.21;101118.81;4995524;28;20034;-81
2022/06/26 00:15:15;;;;;;;13.70;12.30;;;;;;;17.43;92.11;101126.00;4986107;28;20035;-82
2022/06/26 00:17:41;;;;;;;13.82;12.48;;;;;;;17.44;92.48;101126.84;4988812;28;20297;-82
2022/06/26 00:20:06;;;;;;;12.90;11.73;;;;;;;17.42;91.62;101129.69;5000761;28;20046;-82
2022/06/26 00:22:33;;;;;;;13.40;12.10;;;;;;;17.42;91.44;101137.75;4995148;28;20041;-81
2022/06/26 00:24:59;;;;;;;13.50;12.20;;;;;;;17.39;92.24;101140.75;5003397;28;20487;-82
2022/06/26 00:27:24;;;;;;;13.80;12.40;;;;;;;17.37;92.94;101140.88;5013483;28;20030;-82
2022/06/26 00:29:49;;;;;;;13.93;12.55;;;;;;;17.38;92.28;101141.72;4995430;28;20062;-81
2022/06/26 00:32:14;;;;;;;13.50;12.13;;;;;;;17.34;93.11;101138.50;4995011;28;20014;-82
2022/06/26 00:34:40;;;;;;;13.73;12.33;;;;;;;17.35;93.01;101144.72;4994905;28;20326;-82
2022/06/26 00:37:05;;;;;;;13.20;12.00;;;;;;;17.33;92.83;101154.78;4995284;28;20793;-81
2022/06/26 00:39:31;;;;;;;13.30;12.00;;;;;;;17.34;92.62;101159.16;4994848;28;20026;-82
2022/06/26 00:41:56;;;;;;;13.00;11.75;;;;;;;17.28;92.23;101155.22;4989472;28;20386;-81
2022/06/26 00:44:23;;;;;;;13.88;12.52;;;;;;;17.26;91.89;101170.66;4986823;28;20038;-81
2022/06/26 00:46:50;;;;;;;13.30;12.10;;;;;;;17.25;91.17;101168.13;5001323;28;20097;-82
2022/06/26 00:49:16;;;;;;;13.65;12.25;;;;;;;17.23;92.41;101164.75;4982221;28;20031;-81
2022/06/26 00:51:45;;;;;;;14.02;12.68;;;;;;;17.17;92.04;101171.59;4993191;28;20403;-81
2022/06/26 00:54:11;;;;;;;15.00;13.50;;;;;;;17.14;92.23;101178.09;4985729;28;20023;-81
2022/06/26 00:56:37;;;;;;;14.32;12.95;;;;;;;17.13;91.99;101180.94;4977225;28;20430;-81
2022/06/26 00:59:03;;;;;;;14.65;12.88;;;;;;;17.14;91.81;101174.56;4989479;28;20042;-82
2022/06/26 01:01:29;;;;;;;14.57;13.27;;;;;;;17.08;92.52;101176.00;4994809;28;20368;-81
2022/06/26 01:03:55;;;;;;;14.40;13.10;;;;;;;17.09;92.35;101179.56;4992951;28;20057;-81
2022/06/26 01:06:20;;;;;;;14.73;13.23;;;;;;;17.08;91.37;101184.06;4994465;28;20027;-82
2022/06/26 01:08:46;;;;;;;17.95;14.35;;;;;;;17.04;92.66;101177.31;4989823;28;20034;-81
2022/06/26 01:11:17;;;;;;;15.90;14.25;;;;;;;17.05;92.10;101176.31;4989301;28;20442;-81
2022/06/26 01:13:47;;;;;;;19.27;15.23;;;;;;;17.02;92.66;101190.06;4994140;28;20074;-81
2022/06/26 01:16:14;;;;;;;16.98;14.13;;;;;;;16.99;92.32;101193.03;4992132;28;20161;-81
2022/06/26 01:18:40;;;;;;;15.82;14.32;;;;;;;17.00;92.51;101200.06;4998047;28;20034;-82
2022/06/26 01:21:06;;;;;;;15.95;14.52;;;;;;;16.99;92.17;101204.59;4989009;28;20026;-81
2022/06/26 01:23:31;;;;;;;18.35;14.95;;;;;;;16.97;91.84;101192.31;4997011;28;20030;-82
2022/06/26 01:25:57;;;;;;;16.88;15.10;;;;;;;16.98;92.18;101185.97;4994195;28;20034;-82
2022/06/26 01:28:22;;;;;;;17.63;15.60;;;;;;;16.97;92.76;101198.56;4988803;28;20542;-82
2022/06/26 01:30:48;;;;;;;17.25;15.38;;;;;;;16.94;92.66;101196.16;4987736;28;20050;-82
2022/06/26 01:33:13;;;;;;;18.27;16.58;;;;;;;16.91;93.65;101199.16;4991690;28;20109;-82
2022/06/26 01:35:38;;;;;;;18.30;16.58;;;;;;;16.91;93.06;101198.31;4994151;28;20483;-82
2022/06/26 01:38:23;;;;;;;19.48;17.48;;;;;;;16.92;92.72;101205.34;4993797;28;20084;-82
2022/06/26 01:40:51;;;;;;;19.27;17.27;;;;;;;16.88;93.61;101203.97;4986539;28;20117;-82
2022/06/26 01:43:19;;;;;;;20.00;18.02;;;;;;;16.84;93.21;101208.75;5000707;28;20031;-82
2022/06/26 01:45:47;;;;;;;19.77;17.67;;;;;;;16.81;92.72;101207.22;4993629;28;20022;-81
2022/06/26 01:48:15;;;;;;;22.13;19.83;;;;;;;16.81;93.07;101204.53;4986520;28;20038;-82
2022/06/26 01:50:42;;;;;;;20.83;18.63;;;;;;;16.75;93.48;101205.16;4985113;28;20041;-82
2022/06/26 01:53:07;;;;;;;20.35;18.38;;;;;;;16.72;93.67;101213.50;4995448;28;20115;-81
2022/06/26 01:55:33;;;;;;;21.88;19.60;;;;;;;16.71;94.11;101201.06;5006156;28;20105;-81
2022/06/26 01:58:01;;;;;;;21.63;19.50;;;;;;;16.70;93.62;101188.63;4997567;28;20031;-82
2022/06/26 02:00:28;;;;;;;21.52;19.23;;;;;;;16.70;94.35;101188.63;5003470;28;20034;-82
2022/06/26 02:02:53;;;;;;;21.67;19.67;;;;;;;16.68;93.70;101201.34;4982773;28;20509;-82
2022/06/26 02:05:19;;;;;;;22.85;19.63;;;;;;;16.67;94.48;101178.22;4992096;28;20042;-81
2022/06/26 02:07:44;;;;;;;22.45;20.13;;;;;;;16.69;94.69;101183.44;4991774;28;20034;-81
2022/06/26 02:15:37;;;;;;;22.33;19.88;;;;;;;16.65;94.32;101169.47;4993174;28;20092;-82
2022/06/26 02:18:03;;;;;;;20.77;18.52;;;;;;;16.66;92.98;101173.84;4991033;28;20554;-82
2022/06/26 02:20:28;;;;;;;23.33;20.83;;;;;;;16.65;94.63;101167.66;4983759;28;20033;-81
2022/06/26 02:22:53;;;;;;;23.50;19.35;;;;;;;16.65;93.16;101174.81;4991199;28;20435;-82
2022/06/26 02:25:18;;;;;;;20.90;18.70;;;;;;;16.64;93.75;101170.47;4993165;28;20029;-82
2022/06/26 02:27:44;;;;;;;20.75;18.65;;;;;;;16.59;93.51;101175.44;4993463;28;20101;-82
2022/06/26 02:30:09;;;;;;;21.10;18.20;;;;;;;16.56;92.63;101171.22;4988485;28;20073;-81
2022/06/26 02:32:35;;;;;;;19.42;17.52;;;;;;;16.54;93.25;101177.72;4986972;28;20475;-82
2022/06/26 02:35:00;;;;;;;20.85;17.50;;;;;;;16.46;92.73;101191.88;4992857;28;20018;-82
2022/06/26 02:37:25;;;;;;;18.15;15.88;;;;;;;16.40;92.35;101181.72;4993588;28;20022;-82
2022/06/26 02:39:51;;;;;;;17.15;15.07;;;;;;;16.32;91.83;101186.97;4991153;28;20031;-82
2022/06/26 02:42:16;;;;;;;19.17;15.23;;;;;;;16.25;92.03;101194.75;4993543;28;20529;-82
2022/06/26 02:44:41;;;;;;;17.92;14.13;;;;;;;16.22;91.99;101193.22;4980707;28;20046;-82
2022/06/26 02:47:07;;;;;;;15.95;13.68;;;;;;;16.16;92.01;101192.97;4991205;28;20030;-82
2022/06/26 02:49:32;;;;;;;22.00;13.90;;;;;;;16.08;91.72;101194.50;4985686;28;20117;-82
2022/06/26 02:51:57;;;;;;;16.00;13.27;;;;;;;16.06;91.66;101209.91;4988419;28;20026;-82
2022/06/26 02:54:23;;;;;;;17.67;13.55;;;;;;;16.04;91.28;101201.16;4993894;28;20031;-82
2022/06/26 02:56:51;;;;;;;16.33;12.60;;;;;;;16.01;91.32;101209.50;4996322;28;20042;-83
2022/06/26 02:59:16;;;;;;;17.40;13.40;;;;;;;16.01;91.18;101217.53;4989639;28;20038;-83
2022/06/26 03:01:41;;;;;;;16.63;13.45;;;;;;;15.99;91.77;101210.63;4988131;28;20039;-83
2022/06/26 03:04:07;;;;;;;17.70;13.23;;;;;;;15.94;91.62;101219.09;4984868;28;20046;-82
2022/06/26 03:06:32;;;;;;;14.82;13.13;;;;;;;15.92;91.54;101218.41;4993004;28;20033;-81
2022/06/26 03:08:57;;;;;;;18.52;14.02;;;;;;;15.90;92.83;101215.00;4993061;28;20030;-83
2022/06/26 03:11:23;;;;;;;16.93;13.53;;;;;;;15.87;91.87;101216.16;4993349;28;20030;-83
2022/06/26 03:13:51;;;;;;;17.73;13.45;;;;;;;15.83;91.85;101227.28;4991252;28;20686;-83
2022/06/26 03:16:16;;;;;;;16.07;13.27;;;;;;;15.84;92.43;101229.81;4980808;28;20491;-83
2022/06/26 03:18:41;;;;;;;17.23;13.02;;;;;;;15.83;92.24;101229.97;4992825;28;20289;-84
2022/06/26 03:21:07;;;;;;;16.83;12.60;;;;;;;15.79;92.27;101234.75;4992543;28;20018;-83
2022/06/26 03:26:16;;;;;;;14.57;12.02;;;;;;;15.68;91.93;101243.75;4984299;28;20037;-82
2022/06/26 03:28:41;;;;;;;13.55;11.70;;;;;;;15.70;91.96;101246.28;4993536;28;20034;-82
2022/06/26 03:31:06;;;;;;;14.65;12.15;;;;;;;15.68;92.32;101246.41;4978591;28;20110;-82
2022/06/26 03:33:32;;;;;;;15.45;11.13;;;;;;;15.62;92.07;101238.09;4984996;28;20026;-82
2022/06/26 03:35:58;;;;;;;14.13;11.48;;;;;;;15.60;91.92;101256.16;5005109;28;20030;-81
2022/06/26 03:38:23;;;;;;;17.00;12.10;;;;;;;15.56;92.72;101265.47;4991555;28;20113;-82
2022/06/26 03:40:48;;;;;;;12.30;11.00;;;;;;;15.51;92.40;101256.00;4977976;28;20498;-81
2022/06/26 03:43:14;;;;;;;14.75;11.07;;;;;;;15.46;91.94;101263.59;4994027;28;20049;-81
2022/06/26 03:45:39;;;;;;;15.43;11.40;;;;;;;15.43;92.72;101273.75;4991842;28;20027;-82
2022/06/26 03:48:05;;;;;;;16.00;11.88;;;;;;;15.46;93.04;101277.00;4980569;28;20448;-81
2022/06/26 03:50:30;;;;;;;13.77;10.85;;;;;;;15.43;93.04;101276.44;4986167;28;20029;-82
2022/06/26 03:52:55;;;;;;;14.18;10.77;;;;;;;15.38;92.64;101276.84;4995256;28;20463;-81
2022/06/26 03:55:21;;;;;;;11.73;10.27;;;;;;;15.38;92.02;101281.34;4992441;28;20105;-81
2022/06/26 03:57:46;;;;;;;13.65;10.77;;;;;;;15.35;92.55;101280.66;4990110;28;20033;-81
2022/06/26 04:00:12;;;;;;;12.63;10.30;;;;;;;15.31;92.47;101279.22;4993282;28;20041;-81
2022/06/26 04:02:37;;;;;;;13.73;9.57;;;;;;;15.33;93.47;101265.69;4987609;28;20023;-82
2022/06/26 04:05:04;;;;;;;19.10;9.25;;;;;;;15.28;92.50;101262.59;4984576;28;20047;-82
2022/06/26 04:07:30;;;;;;;13.80;9.80;;;;;;;15.28;92.80;101259.91;4988951;28;20023;-82
2022/06/26 04:09:55;;;;;;;13.43;9.55;;;;;;;15.28;92.83;101263.44;4992392;28;20037;-81
2022/06/26 04:12:21;;;;;;;13.82;8.68;;;;;;;15.27;92.78;101268.91;4996300;28;20035;-82
2022/06/26 04:14:47;;;;;;;15.10;9.27;;;;;;;15.21;92.88;101267.66;4995972;28;20427;-82
2022/06/26 04:17:13;;;;;;;11.80;9.48;;;;;;;15.24;94.18;101267.38;4996714;28;20117;-82
2022/06/26 04:19:38;;;;;;;16.20;9.52;;;;;;;15.26;93.16;101265.41;4985338;28;20027;-82
2022/06/26 04:22:04;;;;;;;13.55;9.55;;;;;;;15.25;93.11;101279.75;4991258;28;20018;-84
2022/06/26 04:24:29;;;;;;;11.27;9.00;;;;;;;15.25;92.04;101279.75;4996226;28;20038;-82
2022/06/26 04:26:55;;;;;;;13.75;8.95;;;;;;;15.27;93.47;101285.84;4997767;28;20030;-82
2022/06/26 04:29:20;;;;;;;11.95;9.55;;;;;;;15.26;93.31;101286.81;4996856;28;20422;-81
2022/06/26 04:31:46;;;;;;;12.38;9.63;;;;;;;15.29;93.29;101293.75;4997582;28;20113;-81
2022/06/26 04:34:11;;;;;;;12.18;9.15;;;;;;;15.32;93.04;101309.50;4991145;28;20057;-81
2022/06/26 04:36:37;;;;;;;15.85;9.02;;;;;;;15.35;92.89;101318.13;4990319;28;20081;-82
2022/06/26 04:39:02;;;;;;;11.93;8.75;;;;;;;15.35;93.54;101320.78;4997541;28;20522;-81
2022/06/26 04:41:31;;;;;;;12.57;9.30;;;;;;;15.36;93.60;101322.47;4995336;28;20344;-82
2022/06/26 04:43:57;;;;;;;15.63;9.93;;;;;;;15.38;94.00;101318.81;4996015;28;20023;-82
2022/06/26 04:46:22;;;;;;;13.93;9.82;;;;;;;15.40;94.11;101331.06;5004270;28;20402;-82
2022/06/26 04:48:47;;;;;;;13.80;9.48;;;;;;;15.46;94.21;101335.03;5000627;28;20026;-82
2022/06/26 04:51:13;;;;;;;16.10;9.80;;;;;;;15.50;94.19;101336.44;4996231;28;20533;-82
2022/06/26 04:53:38;;;;;;;14.30;10.18;;;;;;;15.57;94.18;101332.25;4996440;28;20041;-82
2022/06/26 04:56:04;;;;;;;20.00;10.50;;;;;;;15.58;93.69;101333.94;4982726;28;20451;-82
2022/06/26 04:58:30;;;;;;;14.77;9.85;;;;;;;15.65;93.04;101331.53;4996588;28;20026;-82
2022/06/26 05:00:55;;;;;;;15.30;9.95;;;;;;;15.71;94.15;101323.81;4996229;28;20033;-82
2022/06/26 05:03:20;;;;;;;15.48;9.93;;;;;;;15.78;93.61;101329.47;4996234;28;20046;-81
2022/06/26 05:05:45;;;;;;;18.92;10.02;;;;;;;15.81;93.32;101337.25;4996025;28;20034;-82
2022/06/26 05:08:11;;;;;;;14.65;9.18;;;;;;;15.81;92.21;101329.19;4996784;28;20437;-82
2022/06/26 05:10:36;;;;;;;14.68;10.00;;;;;;;15.88;92.15;101333.00;4985473;28;20026;-82
2022/06/26 05:13:01;;;;;;;17.23;9.93;;;;;;;15.93;92.52;101327.22;4995254;28;20046;-82
2022/06/26 05:15:28;;;;;;;15.00;9.30;;;;;;;15.98;92.02;101338.38;5000509;28;20129;-82
2022/06/26 05:17:53;;;;;;;15.07;9.23;;;;;;;15.99;92.02;101342.75;4999814;28;20455;-82
2022/06/26 05:20:18;;;;;;;17.35;9.48;;;;;;;16.06;91.85;101329.63;5007919;28;20030;-82
2022/06/26 05:22:44;;;;;;;16.75;9.57;;;;;;;16.07;91.15;101334.84;4995817;28;20114;-83
2022/06/26 05:25:09;;;;;;;14.13;8.98;;;;;;;16.17;91.39;101334.00;4994500;28;20029;-82
2022/06/26 05:27:34;;;;;;;17.63;9.73;;;;;;;16.21;90.99;101340.78;4996216;28;20053;-83
2022/06/26 05:30:00;;;;;;;14.55;9.20;;;;;;;16.26;91.15;101336.66;4995486;28;20034;-82
2022/06/26 05:32:25;;;;;;;16.87;9.70;;;;;;;16.34;89.92;101341.31;4996198;28;20045;-82
2022/06/26 05:34:50;;;;;;;16.15;9.35;;;;;;;16.43;89.79;101329.72;4995442;28;20293;-82
2022/06/26 05:37:15;;;;;;;17.65;10.00;;;;;;;16.61;91.02;101332.50;4995293;28;20026;-82
2022/06/26 05:39:41;;;;;;;14.53;8.63;;;;;;;16.70;88.52;101344.19;4994639;28;20026;-84
2022/06/26 05:42:06;;;;;;;17.63;9.48;;;;;;;16.79;88.39;101343.34;4992967;28;20285;-83
2022/06/26 05:44:31;;;;;;;15.25;9.48;;;;;;;16.91;88.71;101352.06;4994489;28;20045;-84
2022/06/26 05:47:00;;;;;;;15.32;9.23;;;;;;;16.95;87.39;101364.22;4994588;28;20034;-84
2022/06/26 05:49:25;;;;;;;13.83;9.17;;;;;;;17.04;88.61;101362.50;4993935;28;20046;-84
2022/06/26 05:51:50;;;;;;;14.52;9.25;;;;;;;17.21;86.67;101358.19;4994653;28;20093;-84
2022/06/26 05:54:16;;;;;;;16.13;9.20;;;;;;;17.33;85.51;101370.41;4978786;28;20361;-84
2022/06/26 05:56:41;;;;;;;13.35;8.48;;;;;;;17.53;86.02;101384.56;4975583;28;20023;-84
2022/06/26 05:59:06;;;;;;;14.80;9.35;;;;;;;17.67;84.54;101377.84;4992874;28;20065;-82
2022/06/26 06:01:31;;;;;;;14.13;8.80;;;;;;;17.84;85.36;101372.66;4982753;28;20392;-84
2022/06/26 06:03:57;;;;;;;14.43;8.73;;;;;;;18.03;83.50;101383.28;5003155;28;20053;-84
2022/06/26 06:06:22;;;;;;;13.73;8.75;;;;;;;18.19;82.47;101382.59;4994098;28;20728;-83
2022/06/26 06:08:48;;;;;;;14.07;8.02;;;;;;;18.23;81.23;101389.34;4994681;28;20033;-80
2022/06/26 06:11:14;;;;;;;17.05;8.70;;;;;;;18.42;82.08;101387.50;4990649;28;20114;-81
2022/06/26 06:13:39;;;;;;;12.45;8.30;;;;;;;18.55;80.73;101381.69;4983583;28;20038;-81
2022/06/26 06:16:06;;;;;;;10.32;7.65;;;;;;;18.63;80.05;101384.47;4989083;28;20027;-81
2022/06/26 06:18:33;;;;;;;11.43;7.20;;;;;;;18.83;78.21;101380.56;5004800;28;20042;-80
2022/06/26 06:21:01;;;;;;;11.18;6.70;;;;;;;18.93;79.86;101377.78;5023619;28;20018;-81
2022/06/26 06:23:29;;;;;;;11.32;6.57;;;;;;;18.96;76.72;101366.69;5013483;28;20030;-81
2022/06/26 06:25:54;;;;;;;9.60;6.65;;;;;;;19.01;79.01;101368.91;5000095;28;20057;-83
2022/06/26 06:28:20;;;;;;;10.20;7.10;;;;;;;18.97;79.04;101379.16;5012035;28;20030;-82
2022/06/26 06:30:45;;;;;;;10.15;6.45;;;;;;;19.03;78.20;101375.84;5010594;28;20029;-82
2022/06/26 06:33:11;;;;;;;12.48;6.38;;;;;;;18.95;77.15;101386.56;5011807;28;20042;-82
2022/06/26 06:35:36;;;;;;;10.50;6.13;;;;;;;18.97;76.25;101397.19;5010404;28;20322;-83
2022/06/26 06:38:02;;;;;;;11.10;6.50;;;;;;;18.95;78.54;101401.84;5015707;28;20042;-83
2022/06/26 06:40:28;;;;;;;10.75;5.95;;;;;;;18.92;78.14;101394.94;5015889;28;20023;-83
2022/06/26 06:42:53;;;;;;;10.93;6.35;;;;;;;18.96;77.97;101399.00;5008116;28;20022;-83
2022/06/26 06:45:18;;;;;;;14.07;6.10;;;;;;;18.94;77.06;101408.25;5014728;28;20026;-83
2022/06/26 06:47:43;;;;;;;13.77;6.00;;;;;;;18.98;78.12;101415.00;5013204;28;20014;-83
2022/06/26 06:50:09;;;;;;;9.32;6.63;;;;;;;18.97;77.63;101424.94;5011204;28;20273;-83
2022/06/26 06:52:35;;;;;;;10.63;6.18;;;;;;;18.91;76.89;101436.31;5012986;28;20007;-83
2022/06/26 06:55:01;;;;;;;9.80;6.40;;;;;;;18.95;77.31;101439.53;5011186;28;20022;-83
2022/06/26 06:57:26;;;;;;;9.50;5.80;;;;;;;18.98;77.00;101453.53;5011637;28;20030;-83
2022/06/26 06:59:51;;;;;;;7.82;5.90;;;;;;;18.94;76.69;101449.47;5010426;28;20047;-83
2022/06/26 07:02:16;;;;;;;11.98;5.95;;;;;;;19.03;77.48;101461.13;5012788;28;20030;-83
2022/06/26 07:04:42;;;;;;;8.20;5.90;;;;;;;19.10;77.68;101464.03;5012486;28;20054;-82
2022/06/26 07:07:07;;;;;;;7.97;5.65;;;;;;;19.18;78.33;101473.00;5011312;28;20328;-82
2022/06/26 07:09:32;;;;;;;12.23;5.70;;;;;;;19.32;77.79;101471.59;5013508;28;20085;-82
2022/06/26 07:11:58;;;;;;;8.83;5.43;;;;;;;19.30;76.53;101470.91;5017322;28;20057;-80
2022/06/26 07:14:24;;;;;;;10.50;5.95;;;;;;;19.37;75.18;101482.72;5016128;28;20325;-81
2022/06/26 07:16:49;;;;;;;7.00;5.80;;;;;;;19.37;76.18;101468.41;5016862;28;20052;-81
2022/06/26 07:19:15;;;;;;;8.63;5.82;;;;;;;19.28;73.51;101474.75;5014259;28;20022;-80
2022/06/26 07:21:43;;;;;;;11.40;5.85;;;;;;;19.46;74.56;101477.38;5010105;28;20018;-81
2022/06/26 07:24:09;;;;;;;8.50;5.13;;;;;;;19.49;73.82;101466.28;5017209;28;20037;-81
2022/06/26 07:26:34;;;;;;;7.70;5.50;;;;;;;19.50;74.58;101465.25;5027162;28;20006;-79
2022/06/26 07:29:00;;;;;;;8.13;5.32;;;;;;;19.60;73.84;101474.06;5018271;28;20043;-80
2022/06/26 07:31:25;;;;;;;8.35;5.47;;;;;;;19.58;74.42;101476.94;5001796;28;20074;-82
2022/06/26 07:36:34;;;;;;;6.95;5.40;;;;;;;19.73;73.58;101482.56;5010994;28;20253;-82
2022/06/26 07:39:01;;;;;;;6.10;4.88;;;;;;;19.71;73.77;101481.03;5013961;28;20066;-83
2022/06/26 07:41:26;;;;;;;8.15;5.03;;;;;;;19.57;73.01;101494.09;5014968;28;20018;-83
2022/06/26 07:43:54;;;;;;;8.10;4.90;;;;;;;19.55;72.76;101489.88;5017375;28;20049;-84
2022/06/26 07:46:19;;;;;;;7.35;4.30;;;;;;;19.65;73.04;101481.66;5011074;28;20018;-82
2022/06/26 07:48:44;;;;;;;9.35;4.38;;;;;;;19.52;72.05;101487.53;5016041;28;20068;-83
2022/06/26 07:51:10;;;;;;;6.60;4.32;;;;;;;19.58;71.25;101487.72;5016146;28;20045;-82
2022/06/26 07:53:37;;;;;;;6.97;4.30;;;;;;;19.56;72.87;101487.03;5018082;28;20025;-82
2022/06/26 07:56:03;;;;;;;7.30;4.25;;;;;;;19.55;73.57;101481.78;5015759;28;20026;-83
2022/06/26 07:58:29;;;;;;;8.10;4.57;;;;;;;19.42;73.51;101490.34;5011629;28;20023;-83
2022/06/26 08:00:57;;;;;;;7.03;5.03;;;;;;;19.40;71.75;101495.00;5013369;28;20094;-82
2022/06/26 08:03:23;;;;;;;7.95;5.00;;;;;;;19.35;73.03;101497.34;5012758;28;20125;-82
2022/06/26 08:05:48;;;;;;;7.82;4.50;;;;;;;19.25;71.37;101508.22;5016303;28;20034;-82
2022/06/26 08:08:13;;;;;;;7.00;4.15;;;;;;;19.29;70.39;101504.22;5017318;28;20021;-82
2022/06/26 08:10:39;;;;;;;8.55;4.60;;;;;;;19.34;72.86;101501.91;5014816;28;20010;-83
2022/06/26 08:13:05;;;;;;;9.93;4.97;;;;;;;19.30;73.49;101511.31;5016673;28;20029;-82
2022/06/26 08:15:34;;;;;;;7.03;4.70;;;;;;;19.37;74.01;101504.28;5016894;28;20026;-82
2022/06/26 08:18:00;;;;;;;7.35;4.60;;;;;;;19.44;72.81;101511.72;5015812;28;20053;-82
2022/06/26 08:20:25;;;;;;;6.60;4.78;;;;;;;19.40;73.76;101512.03;5013787;28;20034;-82
2022/06/26 08:22:51;;;;;;;8.05;4.18;;;;;;;19.31;72.41;101510.28;5011280;28;20090;-82
2022/06/26 08:25:16;;;;;;;9.35;4.07;;;;;;;19.32;72.71;101508.47;5017092;28;20118;-81
2022/06/26 08:27:41;;;;;;;5.47;4.20;;;;;;;19.28;72.70;101510.59;5012815;28;20045;-80
2022/06/26 08:30:09;;;;;;;7.93;4.28;;;;;;;19.29;73.58;101509.59;5016693;28;20015;-82
2022/06/26 08:32:35;;;;;;;7.55;4.32;;;;;;;19.33;72.50;101505.56;5023211;28;20044;-81
2022/06/26 08:35:00;;;;;;;6.60;3.80;;;;;;;19.30;72.13;101495.16;5021719;28;20046;-81
2022/06/26 08:37:25;;;;;;;5.88;4.07;;;;;;;19.30;71.27;101491.59;5019883;28;20042;-80
2022/06/26 08:39:51;;;;;;;7.00;3.80;;;;;;;19.28;71.98;101497.13;5033804;28;20043;-82
2022/06/26 08:42:18;;;;;;;6.65;4.15;;;;;;;19.35;72.36;101502.72;5019742;28;20054;-80
2022/06/26 08:44:45;;;;;;;7.60;4.13;;;;;;;19.33;70.81;101512.81;5004635;28;20026;-80
2022/06/26 08:47:11;;;;;;;5.43;4.35;;;;;;;19.29;73.68;101517.69;5017155;28;20030;-80
2022/06/26 08:49:38;;;;;;;7.30;4.05;;;;;;;19.29;71.05;101512.31;5010184;28;20045;-80
2022/06/26 08:52:04;;;;;;;4.63;3.70;;;;;;;19.20;72.27;101519.50;5005634;28;20029;-80
2022/06/26 08:54:31;;;;;;;12.73;3.83;;;;;;;19.29;70.86;101524.94;4986926;28;20026;-80
2022/06/26 08:56:57;;;;;;;4.95;3.80;;;;;;;19.29;71.36;101519.53;5000728;28;20038;-81
2022/06/26 08:59:23;;;;;;;6.93;4.30;;;;;;;19.31;72.09;101512.16;5012254;28;20035;-81
2022/06/26 09:01:48;;;;;;;6.32;3.45;;;;;;;19.30;70.05;101516.69;5008561;28;20029;-81
2022/06/26 09:04:14;;;;;;;5.78;3.50;;;;;;;19.36;70.71;101515.22;5009506;28;20044;-81
2022/06/26 09:06:41;;;;;;;6.15;3.72;;;;;;;19.34;70.77;101522.59;5012618;28;20040;-81
2022/06/26 09:09:23;;;;;;;5.82;3.55;;;;;;;19.33;70.72;101512.81;5012662;28;20026;-82
2022/06/26 09:11:50;;;;;;;6.95;3.88;;;;;;;19.38;71.48;101519.44;5005959;28;20030;-80
2022/06/26 09:14:15;;;;;;;6.65;4.05;;;;;;;19.41;73.51;101521.78;5003662;28;20026;-81
2022/06/26 09:16:46;;;;;;;5.65;3.70;;;;;;;19.33;72.43;101516.34;5002632;28;20528;-81
2022/06/26 09:19:18;;;;;;;5.68;3.40;;;;;;;19.36;70.47;101516.03;5000056;28;20026;-81
2022/06/26 09:21:44;;;;;;;5.50;3.80;;;;;;;19.32;69.24;101512.00;5000062;28;20022;-81
2022/06/26 09:24:13;;;;;;;5.30;3.10;;;;;;;19.31;70.21;101529.13;4992239;28;20033;-81
2022/06/26 09:26:40;;;;;;;5.57;3.42;;;;;;;19.30;71.30;101526.59;5000064;28;20387;-81
2022/06/26 09:29:14;;;;;;;4.30;3.00;;;;;;;19.34;70.88;101526.13;4998573;28;20099;-81
2022/06/26 09:31:40;;;;;;;4.75;3.10;;;;;;;19.40;71.01;101536.28;4992925;28;20042;-81
2022/06/26 09:34:06;;;;;;;4.80;2.97;;;;;;;19.39;69.82;101534.59;5000097;28;20038;-81
2022/06/26 09:36:33;;;;;;;6.35;2.90;;;;;;;19.46;71.41;101523.19;4998713;28;20030;-81
2022/06/26 09:38:58;;;;;;;8.07;2.92;;;;;;;19.44;69.76;101519.81;4993170;28;20038;-81
2022/06/26 09:41:38;;;;;;;6.90;2.95;;;;;;;19.51;69.51;101527.06;5000237;28;20069;-81
2022/06/26 09:44:04;;;;;;;5.65;3.90;;;;;;;19.49;69.55;101525.56;4988505;28;20117;-81
2022/06/26 09:46:31;;;;;;;6.28;2.90;;;;;;;19.47;71.05;101532.94;5000858;28;20065;-81
2022/06/26 09:48:58;;;;;;;5.50;3.42;;;;;;;19.51;69.23;101529.75;5000624;28;20081;-81
2022/06/26 09:51:24;;;;;;;6.93;3.20;;;;;;;19.52;67.98;101533.34;4997099;28;20496;-81
2022/06/26 09:53:50;;;;;;;5.32;3.28;;;;;;;19.49;69.98;101526.41;5001259;28;20054;-80
2022/06/26 09:56:16;;;;;;;6.18;3.40;;;;;;;19.56;69.43;101542.78;5000853;28;20047;-81
2022/06/26 09:58:42;;;;;;;5.32;3.50;;;;;;;19.62;70.12;101542.13;4982604;28;20035;-80
2022/06/26 10:06:37;;;;;;;4.15;2.95;;;;;;;19.71;68.23;101548.41;4998705;28;20085;-81
2022/06/26 10:09:05;;;;;;;9.57;3.95;;;;;;;19.72;70.11;101544.72;5000040;28;20034;-81
2022/06/26 10:11:34;;;;;;;6.57;3.30;;;;;;;19.71;67.00;101545.72;5001777;28;20034;-81
2022/06/26 10:14:09;;;;;;;3.58;2.75;;;;;;;19.75;68.98;101553.34;5001060;28;20022;-81
2022/06/26 10:16:55;;;;;;;7.15;3.42;;;;;;;19.79;68.68;101561.97;4989598;28;20057;-79
2022/06/26 10:19:23;;;;;;;9.75;3.15;;;;;;;19.77;68.08;101562.13;4989501;28;20042;-79
2022/06/26 10:21:50;;;;;;;4.90;3.15;;;;;;;19.77;69.88;101566.69;4988819;28;20065;-79
2022/06/26 10:24:16;;;;;;;5.32;3.10;;;;;;;19.89;68.92;101567.25;5009258;28;20363;-80
2022/06/26 10:27:00;;;;;;;6.03;2.60;;;;;;;20.11;69.80;101555.84;5008246;28;20040;-80
2022/06/26 10:29:37;;;;;;;9.73;3.50;;;;;;;20.22;67.61;101553.91;4998133;28;20092;-81
2022/06/26 10:32:04;;;;;;;4.63;3.00;;;;;;;20.29;67.72;101557.63;5001091;28;20052;-80
2022/06/26 10:34:31;;;;;;;5.78;2.60;;;;;;;20.40;65.57;101559.16;4997144;28;20100;-80
2022/06/26 10:37:13;;;;;;;4.13;2.67;;;;;;;20.54;66.58;101560.38;4998560;28;20415;-80
2022/06/26 10:39:38;;;;;;;6.82;2.95;;;;;;;20.69;66.50;101556.88;4991749;28;20061;-81
2022/06/26 10:45:15;;;;;;;7.93;3.90;;;;;;;21.03;66.41;101555.03;5000702;28;20070;-80
2022/06/26 10:47:49;;;;;;;4.88;3.03;;;;;;;21.29;67.43;101559.44;4990488;28;20035;-81
2022/06/26 10:50:28;;;;;;;5.03;3.15;;;;;;;21.40;64.81;101551.81;5000891;28;20049;-80
2022/06/26 10:53:16;;;;;;;8.18;3.60;;;;;;;21.43;64.01;101556.00;5001579;28;20030;-81
2022/06/26 10:55:44;;;;;;;4.22;2.63;;;;;;;21.36;61.24;101557.72;5002866;28;20014;-81
2022/06/26 10:58:18;;;;;;;7.72;2.90;;;;;;;21.25;61.02;101565.16;5009373;28;20033;-81
2022/06/26 11:00:43;;;;;;;6.70;2.90;;;;;;;21.26;61.08;101564.13;5011478;28;20034;-80
2022/06/26 11:03:17;;;;;;;6.15;2.80;;;;;;;21.29;61.42;101570.22;5009100;28;20029;-81
2022/06/26 11:05:56;;;;;;;7.82;2.92;;;;;;;21.37;62.00;101565.66;4995045;28;20387;-81
2022/06/26 11:08:33;;;;;;;12.80;2.95;;;;;;;21.46;61.45;101552.13;4986689;28;20479;-82
2022/06/26 11:11:03;;;;;;;6.93;2.40;;;;;;;21.53;59.16;101556.72;5011531;28;20030;-82
2022/06/26 11:13:28;;;;;;;6.43;3.00;;;;;;;21.45;57.87;101545.88;5028858;28;20082;-82
2022/06/26 11:15:57;;;;;;;3.67;2.60;;;;;;;21.39;57.78;101546.56;4998865;28;20129;-82
2022/06/26 11:18:22;;;;;;;5.22;2.60;;;;;;;21.37;63.17;101548.59;5016446;28;20022;-82
2022/06/26 11:20:50;;;;;;;4.60;2.47;;;;;;;21.57;60.67;101536.41;5005664;28;20042;-82
2022/06/26 11:23:18;;;;;;;6.72;2.33;;;;;;;21.57;62.52;101532.88;5013071;28;20042;-82
2022/06/26 11:25:45;;;;;;;4.83;2.43;;;;;;;21.78;60.83;101543.97;5003850;28;20023;-82
2022/06/26 11:28:11;;;;;;;3.67;2.40;;;;;;;21.77;59.93;101533.31;5010693;28;20345;-82
2022/06/26 11:30:39;;;;;;;6.07;2.88;;;;;;;21.74;59.40;101533.66;5016553;28;20033;-82
2022/06/26 11:33:05;;;;;;;5.80;2.53;;;;;;;21.80;59.86;101536.50;5003932;28;20372;-81